Terminal Aerodrome Forecast
Issued by NWS

Home | Current Version | Previous Version | Text Only | Print | Product List | Glossary On
Versions: 1 2 3 4 5 6 7 8 9 10 11 12 13 14
000
FTUS44 KEPZ 011142
TAFDMN
TAF
KDMN 011142Z 0112/0212 29006KT P6SM BKN250
     FM012200 24009KT P6SM VCTS SCT090CB BKN250
     FM020300 28007KT P6SM SCT250=

USA.gov is the U.S. government's official web portal to all federal, state and local government web resources and services.